createdAt,value
2023-06-29T00:01:55.632Z,13.35
2023-06-29T00:04:27.491Z,16.70
2023-06-29T00:06:56.014Z,17.02
2023-06-29T00:09:24.861Z,18.55
2023-06-29T00:11:53.025Z,16.85
2023-06-29T00:14:21.199Z,15.82
2023-06-29T00:16:51.839Z,19.83
2023-06-29T00:19:24.439Z,19.90
2023-06-29T00:21:52.646Z,20.98
2023-06-29T00:24:20.882Z,18.15
2023-06-29T00:26:49.306Z,17.50
2023-06-29T00:29:18.180Z,17.33
2023-06-29T00:31:46.300Z,19.77
2023-06-29T00:34:15.893Z,21.38
2023-06-29T00:36:44.485Z,20.23
2023-06-29T00:39:13.712Z,17.88
2023-06-29T00:41:41.821Z,16.67
2023-06-29T00:44:10.725Z,18.40
2023-06-29T00:46:39.109Z,17.00
2023-06-29T00:49:07.364Z,19.35
2023-06-29T00:51:38.927Z,20.27
2023-06-29T00:54:07.171Z,19.30
2023-06-29T00:56:36.787Z,19.10
2023-06-29T00:59:05.270Z,21.67
2023-06-29T01:01:33.629Z,19.80
2023-06-29T01:04:02.351Z,22.02
2023-06-29T01:06:34.712Z,20.67
2023-06-29T01:09:05.942Z,19.83
2023-06-29T01:11:34.671Z,19.23
2023-06-29T01:14:04.878Z,20.98
2023-06-29T01:16:34.307Z,18.77
2023-06-29T01:19:04.012Z,17.80
2023-06-29T01:21:33.209Z,19.17
2023-06-29T01:24:06.900Z,19.70
2023-06-29T01:26:39.742Z,16.93
2023-06-29T01:29:08.094Z,19.42
2023-06-29T01:31:36.424Z,17.90
2023-06-29T01:34:04.844Z,19.67
2023-06-29T01:36:36.167Z,21.35
2023-06-29T01:39:10.373Z,18.33
2023-06-29T01:41:42.993Z,20.17
2023-06-29T01:44:13.912Z,22.53
2023-06-29T01:46:42.422Z,17.17
2023-06-29T01:49:10.849Z,18.05
2023-06-29T01:51:40.077Z,19.73
2023-06-29T01:54:08.582Z,18.67
2023-06-29T01:56:36.960Z,21.48
2023-06-29T01:59:06.864Z,18.38
2023-06-29T02:01:35.234Z,19.20
2023-06-29T02:04:04.062Z,20.05
2023-06-29T02:06:32.322Z,19.73
2023-06-29T02:09:00.638Z,23.63
2023-06-29T02:11:28.895Z,19.83
2023-06-29T02:13:57.225Z,18.95
2023-06-29T02:16:26.835Z,17.92
2023-06-29T02:18:54.966Z,19.85
2023-06-29T02:21:23.089Z,16.30
2023-06-29T02:23:51.254Z,22.02
2023-06-29T02:26:19.366Z,17.90
2023-06-29T02:28:47.565Z,17.38
2023-06-29T02:31:16.878Z,17.35
2023-06-29T02:33:47.624Z,22.27
2023-06-29T02:36:16.514Z,20.25
2023-06-29T02:38:46.404Z,20.30
2023-06-29T02:41:14.569Z,17.95
2023-06-29T02:43:42.929Z,20.05
2023-06-29T02:46:13.393Z,19.83
2023-06-29T02:48:41.562Z,18.30
2023-06-29T02:51:11.810Z,19.52
2023-06-29T02:53:43.311Z,23.42
2023-06-29T02:56:12.754Z,21.58
2023-06-29T02:58:41.151Z,22.33
2023-06-29T03:01:13.027Z,22.13
2023-06-29T03:03:41.612Z,23.58
2023-06-29T03:06:11.830Z,23.15
2023-06-29T03:08:40.102Z,23.25
2023-06-29T03:11:08.977Z,23.40
2023-06-29T03:13:37.120Z,20.30
2023-06-29T03:16:05.689Z,20.45
2023-06-29T03:18:33.845Z,18.83
2023-06-29T03:21:09.931Z,19.90
2023-06-29T03:23:46.972Z,19.13
2023-06-29T03:26:15.402Z,19.95
2023-06-29T03:28:44.048Z,22.27
2023-06-29T03:31:12.480Z,21.77
2023-06-29T03:33:40.625Z,20.73
2023-06-29T03:36:12.400Z,21.30
2023-06-29T03:38:40.596Z,19.98
2023-06-29T03:41:10.108Z,22.20
2023-06-29T03:43:38.520Z,21.05
2023-06-29T03:46:06.796Z,22.58
2023-06-29T03:48:35.273Z,20.63
2023-06-29T03:51:03.652Z,22.98
2023-06-29T03:53:31.793Z,21.38
2023-06-29T03:56:00.512Z,23.92
2023-06-29T03:58:30.955Z,19.08
2023-06-29T04:00:59.708Z,21.20
2023-06-29T04:03:27.884Z,19.73
2023-06-29T04:05:56.391Z,18.27
2023-06-29T04:08:24.787Z,20.00
2023-06-29T04:10:53.207Z,21.27
2023-06-29T04:13:21.350Z,21.83
2023-06-29T04:15:50.965Z,21.00
2023-06-29T04:18:19.402Z,19.05
2023-06-29T04:20:47.813Z,18.27
2023-06-29T04:23:16.976Z,19.88
2023-06-29T04:25:45.588Z,21.83
2023-06-29T04:28:14.133Z,20.02
2023-06-29T04:30:43.850Z,19.40
2023-06-29T04:33:16.329Z,16.90
2023-06-29T04:38:14.373Z,19.80
2023-06-29T04:40:43.669Z,16.60
2023-06-29T04:43:13.923Z,18.70
2023-06-29T04:45:43.567Z,18.85
2023-06-29T04:48:13.812Z,18.40
2023-06-29T04:50:42.589Z,20.50
2023-06-29T04:53:13.416Z,16.85
2023-06-29T04:55:42.126Z,17.20
2023-06-29T04:58:10.537Z,19.52
2023-06-29T05:00:38.705Z,17.20
2023-06-29T05:03:06.972Z,16.45
2023-06-29T05:05:36.622Z,14.82
2023-06-29T05:08:04.973Z,14.75
2023-06-29T05:10:33.240Z,15.75
2023-06-29T05:13:01.685Z,14.20
2023-06-29T05:15:30.326Z,16.38
2023-06-29T05:17:58.591Z,15.13
2023-06-29T05:20:29.109Z,16.63
2023-06-29T05:23:00.167Z,17.95
2023-06-29T05:25:28.380Z,16.27
2023-06-29T05:27:56.592Z,17.17
2023-06-29T05:30:25.808Z,13.13
2023-06-29T05:32:55.690Z,15.07
2023-06-29T05:35:24.144Z,17.75
2023-06-29T05:37:53.209Z,17.15
2023-06-29T05:40:22.775Z,16.40
2023-06-29T05:42:51.477Z,17.42
2023-06-29T05:45:22.246Z,15.50
2023-06-29T05:47:50.867Z,14.27
2023-06-29T05:50:21.824Z,13.68
2023-06-29T05:52:51.407Z,15.10
2023-06-29T05:55:20.806Z,15.98
2023-06-29T05:57:50.523Z,16.42
2023-06-29T06:00:20.397Z,18.10
2023-06-29T06:02:49.360Z,17.35
2023-06-29T06:05:18.150Z,23.42
2023-06-29T06:07:46.354Z,16.65
2023-06-29T06:10:14.680Z,13.45
2023-06-29T06:12:43.010Z,15.20
2023-06-29T06:15:15.278Z,17.70
2023-06-29T06:20:15.054Z,18.23
2023-06-29T06:22:43.210Z,15.48
2023-06-29T06:25:11.622Z,16.45
2023-06-29T06:27:40.126Z,14.02
2023-06-29T06:30:09.822Z,15.23
2023-06-29T06:32:40.989Z,15.90
2023-06-29T06:35:10.371Z,20.38
2023-06-29T06:37:38.913Z,15.75
2023-06-29T06:40:08.762Z,16.98
2023-06-29T06:42:38.020Z,15.30
2023-06-29T06:45:07.416Z,17.40
2023-06-29T06:47:38.329Z,17.70
2023-06-29T06:50:09.550Z,19.30
2023-06-29T06:52:37.751Z,16.40
2023-06-29T06:55:08.852Z,15.60
2023-06-29T06:57:37.776Z,15.95
2023-06-29T07:00:12.048Z,17.33
2023-06-29T07:02:40.519Z,14.88
2023-06-29T07:05:11.921Z,13.57
2023-06-29T07:07:40.262Z,15.67
2023-06-29T07:10:10.895Z,16.70
2023-06-29T07:12:39.609Z,18.45
2023-06-29T07:15:09.386Z,17.35
2023-06-29T07:17:37.748Z,14.63
2023-06-29T07:25:12.718Z,15.38
2023-06-29T07:27:41.420Z,19.75
2023-06-29T07:30:10.585Z,13.70
2023-06-29T07:32:38.958Z,16.02
2023-06-29T07:35:07.822Z,16.23
2023-06-29T07:37:36.072Z,13.90
2023-06-29T07:40:07.253Z,15.27
2023-06-29T07:42:39.888Z,15.10
2023-06-29T07:45:11.114Z,15.32
2023-06-29T07:47:39.471Z,16.10
2023-06-29T07:50:12.086Z,16.02
2023-06-29T07:52:40.286Z,16.00
2023-06-29T07:55:10.805Z,15.65
2023-06-29T08:00:19.512Z,18.50
2023-06-29T08:02:47.904Z,18.30
2023-06-29T08:07:48.669Z,17.10
2023-06-29T08:10:18.294Z,14.35
2023-06-29T08:12:46.465Z,22.00
2023-06-29T08:15:17.103Z,18.42
2023-06-29T08:17:45.869Z,13.38
2023-06-29T08:20:14.920Z,17.85
2023-06-29T08:22:44.380Z,18.02
2023-06-29T08:25:13.379Z,17.52
2023-06-29T08:27:43.600Z,16.15
2023-06-29T08:30:12.812Z,14.82
2023-06-29T08:32:41.593Z,14.73
2023-06-29T08:35:10.522Z,21.10
2023-06-29T08:37:39.373Z,17.50
2023-06-29T08:40:10.048Z,17.40
2023-06-29T08:42:39.703Z,19.58
2023-06-29T08:45:10.509Z,16.60
2023-06-29T08:47:40.762Z,17.77
2023-06-29T08:50:11.744Z,18.52
2023-06-29T08:52:41.233Z,16.13
2023-06-29T08:55:10.742Z,15.23
2023-06-29T08:57:40.978Z,16.77
2023-06-29T09:00:12.733Z,15.88
2023-06-29T09:02:41.445Z,15.95
2023-06-29T09:05:13.456Z,19.45
2023-06-29T09:07:42.730Z,17.73
2023-06-29T09:10:12.540Z,18.35
2023-06-29T09:12:41.380Z,20.48
2023-06-29T09:19:25.345Z,21.70
2023-06-29T09:21:54.134Z,17.35
2023-06-29T09:24:22.785Z,17.08
2023-06-29T09:26:55.714Z,18.98
2023-06-29T09:29:24.782Z,16.33
2023-06-29T09:31:56.386Z,16.75
2023-06-29T09:34:27.786Z,19.83
2023-06-29T09:36:56.995Z,21.85
2023-06-29T09:39:27.549Z,19.50
2023-06-29T09:41:57.773Z,25.52
2023-06-29T09:44:27.414Z,17.67
2023-06-29T09:49:49.246Z,18.30
2023-06-29T09:52:18.691Z,21.73
2023-06-29T09:54:47.827Z,16.92
2023-06-29T09:57:16.187Z,18.65
2023-06-29T09:59:46.829Z,20.65
2023-06-29T10:02:16.219Z,20.52
2023-06-29T10:04:46.508Z,17.38
2023-06-29T10:07:18.004Z,18.90
2023-06-29T10:09:50.526Z,19.83
2023-06-29T10:12:19.887Z,19.75
2023-06-29T10:14:49.143Z,18.23
2023-06-29T10:17:25.302Z,22.40
2023-06-29T10:19:56.479Z,22.52
2023-06-29T10:22:25.271Z,22.33
2023-06-29T10:24:55.568Z,23.63
2023-06-29T10:27:30.080Z,20.95
2023-06-29T10:29:58.577Z,20.63
2023-06-29T10:32:33.881Z,16.60
2023-06-29T10:35:05.792Z,18.83
2023-06-29T10:37:35.579Z,25.88
2023-06-29T10:40:06.958Z,21.77
2023-06-29T10:42:54.854Z,19.88
2023-06-29T10:45:35.185Z,20.05
2023-06-29T10:48:08.254Z,22.48
2023-06-29T10:50:43.544Z,21.50
2023-06-29T10:53:13.510Z,19.70
2023-06-29T10:55:44.052Z,22.38
2023-06-29T10:58:26.499Z,22.67
2023-06-29T11:00:56.108Z,20.08
2023-06-29T11:03:25.358Z,32.35
2023-06-29T11:05:56.053Z,24.65
2023-06-29T11:08:24.690Z,23.80
2023-06-29T11:10:53.716Z,27.92
2023-06-29T11:13:22.910Z,23.75
2023-06-29T11:16:00.658Z,24.05
2023-06-29T11:18:32.545Z,24.85
2023-06-29T11:21:08.261Z,27.10
2023-06-29T11:23:36.532Z,24.40
2023-06-29T11:26:05.194Z,24.60
2023-06-29T11:28:34.143Z,27.52
2023-06-29T11:31:03.144Z,23.73
2023-06-29T11:33:34.940Z,26.73
2023-06-29T11:38:36.268Z,29.80
2023-06-29T11:41:06.288Z,29.38
2023-06-29T11:43:34.929Z,28.65
2023-06-29T11:46:03.407Z,28.17
2023-06-29T11:48:31.780Z,25.85
2023-06-29T11:51:01.849Z,27.70
2023-06-29T11:53:32.777Z,31.90
2023-06-29T11:56:04.670Z,29.33
2023-06-29T11:58:36.808Z,34.22
2023-06-29T12:01:05.590Z,34.28
2023-06-29T12:03:35.249Z,39.55
2023-06-29T12:06:03.480Z,32.03
2023-06-29T12:08:40.949Z,31.42
2023-06-29T12:11:16.991Z,37.08
2023-06-29T12:13:48.147Z,33.65
2023-06-29T12:18:50.328Z,36.60
2023-06-29T12:21:22.971Z,31.45
2023-06-29T12:23:53.763Z,35.42
2023-06-29T12:26:22.508Z,31.90
2023-06-29T12:28:51.164Z,38.03
2023-06-29T12:31:19.613Z,34.50
2023-06-29T12:33:47.758Z,31.98
2023-06-29T12:36:16.237Z,38.15
2023-06-29T12:38:44.879Z,37.10
2023-06-29T12:41:14.571Z,34.50
2023-06-29T12:43:42.656Z,35.95
2023-06-29T12:46:12.482Z,32.92
2023-06-29T12:48:40.685Z,34.55
2023-06-29T12:51:08.823Z,30.73
2023-06-29T12:53:39.312Z,34.55
2023-06-29T12:56:07.600Z,33.72
2023-06-29T12:58:37.249Z,32.17
2023-06-29T13:01:05.437Z,35.22
2023-06-29T13:03:34.070Z,39.38
2023-06-29T13:06:02.344Z,36.22
2023-06-29T13:08:30.861Z,34.60
2023-06-29T13:10:59.401Z,39.63
2023-06-29T13:13:27.905Z,34.75
2023-06-29T13:15:57.483Z,34.33
2023-06-29T13:18:27.365Z,36.50
2023-06-29T13:20:55.670Z,33.47
2023-06-29T13:23:24.112Z,30.42
2023-06-29T13:25:52.412Z,31.15
2023-06-29T13:28:21.360Z,28.33
2023-06-29T13:30:49.653Z,31.50
2023-06-29T13:33:19.484Z,32.47
2023-06-29T13:35:47.832Z,32.72
2023-06-29T13:38:16.355Z,29.40
2023-06-29T13:40:44.853Z,26.08
2023-06-29T13:43:13.171Z,26.33
2023-06-29T13:45:41.418Z,25.70
2023-06-29T13:48:09.875Z,28.17
2023-06-29T13:50:42.032Z,27.58
2023-06-29T13:55:39.249Z,25.15
2023-06-29T13:58:07.798Z,26.30
2023-06-29T14:00:36.884Z,25.02
2023-06-29T14:03:05.137Z,23.35
2023-06-29T14:05:35.953Z,24.05
2023-06-29T14:08:06.363Z,29.67
2023-06-29T14:10:34.836Z,28.40
2023-06-29T14:13:03.471Z,28.33
2023-06-29T14:15:32.540Z,26.83
2023-06-29T14:18:00.862Z,29.23
2023-06-29T14:20:29.318Z,29.85
2023-06-29T14:22:57.985Z,33.20
2023-06-29T14:25:27.728Z,31.98
2023-06-29T14:27:55.960Z,32.25
2023-06-29T14:30:24.556Z,36.03
2023-06-29T14:32:53.912Z,32.47
2023-06-29T14:35:32.101Z,33.53
2023-06-29T14:38:13.958Z,36.13
2023-06-29T14:40:44.174Z,36.55
2023-06-29T14:43:13.376Z,36.55
2023-06-29T14:45:41.946Z,36.60
2023-06-29T14:48:10.519Z,35.90
2023-06-29T14:50:38.642Z,34.50
2023-06-29T14:53:07.039Z,33.50
2023-06-29T14:55:35.089Z,32.95
2023-06-29T14:58:05.798Z,33.97
2023-06-29T15:00:34.167Z,33.55
2023-06-29T15:03:02.518Z,33.05
2023-06-29T15:05:30.906Z,30.05
2023-06-29T15:07:59.097Z,32.85
2023-06-29T15:10:27.297Z,35.30
2023-06-29T15:12:55.436Z,31.52
2023-06-29T15:15:25.578Z,30.17
2023-06-29T15:17:53.688Z,32.47
2023-06-29T15:20:21.878Z,31.02
2023-06-29T15:22:50.233Z,29.85
2023-06-29T15:25:19.394Z,31.23
2023-06-29T15:27:47.647Z,31.05
2023-06-29T15:30:18.145Z,30.27
2023-06-29T15:32:47.927Z,30.17
2023-06-29T15:35:16.212Z,32.95
2023-06-29T15:37:44.808Z,33.55
2023-06-29T15:40:14.063Z,29.42
2023-06-29T15:42:43.764Z,28.52
2023-06-29T15:45:15.683Z,28.17
2023-06-29T15:47:51.106Z,31.33
2023-06-29T15:50:19.830Z,32.63
2023-06-29T15:52:58.180Z,32.70
2023-06-29T15:59:18.350Z,28.52
2023-06-29T16:02:37.026Z,29.33
2023-06-29T16:05:42.607Z,29.25
2023-06-29T16:08:22.812Z,27.45
2023-06-29T16:13:33.264Z,30.27
2023-06-29T16:16:10.338Z,31.73
2023-06-29T16:18:50.388Z,28.80
2023-06-29T16:21:24.404Z,30.40
2023-06-29T16:23:59.156Z,31.30
2023-06-29T16:26:30.576Z,31.63
2023-06-29T16:29:00.546Z,34.50
2023-06-29T16:31:31.027Z,32.10
2023-06-29T16:34:52.327Z,33.75
2023-06-29T16:37:55.088Z,34.35
2023-06-29T16:41:09.214Z,31.25
2023-06-29T16:43:45.696Z,34.53
2023-06-29T16:46:22.149Z,33.67
2023-06-29T16:48:57.963Z,37.53
2023-06-29T16:51:29.978Z,36.10
2023-06-29T16:56:30.950Z,43.50
2023-06-29T16:59:20.072Z,35.08
2023-06-29T17:01:59.521Z,37.70
2023-06-29T17:04:53.314Z,38.15
2023-06-29T17:07:29.628Z,35.67
2023-06-29T17:10:26.290Z,36.08
2023-06-29T17:13:17.425Z,36.17
2023-06-29T17:15:59.084Z,33.83
2023-06-29T17:18:33.374Z,36.83
2023-06-29T17:21:01.937Z,36.97
2023-06-29T17:23:43.284Z,37.67
2023-06-29T17:26:30.670Z,41.28
2023-06-29T17:29:10.334Z,37.28
2023-06-29T17:31:53.151Z,39.55
2023-06-29T17:40:39.495Z,40.75
2023-06-29T17:43:37.319Z,40.55
2023-06-29T17:46:37.455Z,40.53
2023-06-29T17:49:38.000Z,41.75
2023-06-29T17:53:06.905Z,37.45
2023-06-29T17:56:27.385Z,46.08
2023-06-29T18:03:26.704Z,48.53
2023-06-29T18:06:29.419Z,46.03
2023-06-29T18:09:01.816Z,49.03
2023-06-29T18:11:32.680Z,50.60
2023-06-29T18:14:01.263Z,48.05
2023-06-29T18:16:40.027Z,48.92
2023-06-29T18:19:16.067Z,42.95
2023-06-29T18:21:45.993Z,46.58
2023-06-29T18:24:18.196Z,46.95
2023-06-29T18:26:49.609Z,48.00
2023-06-29T18:29:38.864Z,46.97
2023-06-29T18:32:12.525Z,50.03
2023-06-29T18:34:51.763Z,48.97
2023-06-29T18:37:25.766Z,49.25
2023-06-29T18:39:58.610Z,49.28
2023-06-29T18:42:26.754Z,48.30
2023-06-29T18:44:55.007Z,45.58
2023-06-29T18:47:28.879Z,50.60
2023-06-29T18:50:12.349Z,47.63
2023-06-29T18:53:12.650Z,46.67
2023-06-29T18:59:27.832Z,45.78
2023-06-29T19:02:39.215Z,48.45
2023-06-29T19:05:07.800Z,48.80
2023-06-29T19:08:46.483Z,47.53
2023-06-29T19:11:22.941Z,48.95
2023-06-29T19:14:36.037Z,49.90
2023-06-29T19:19:58.087Z,50.13
2023-06-29T19:22:26.171Z,43.92
2023-06-29T19:25:16.864Z,46.13
2023-06-29T19:28:23.042Z,44.58
2023-06-29T19:31:06.614Z,48.25
2023-06-29T19:33:45.935Z,42.43
2023-06-29T19:36:24.518Z,45.60
2023-06-29T19:39:03.782Z,41.20
2023-06-29T19:41:46.009Z,47.38
2023-06-29T19:44:52.403Z,45.03
2023-06-29T19:47:20.535Z,45.75
2023-06-29T19:49:51.767Z,45.88
2023-06-29T19:52:48.434Z,44.85
2023-06-29T19:56:19.379Z,43.22
2023-06-29T19:59:00.858Z,46.67
2023-06-29T20:01:29.087Z,44.58
2023-06-29T20:03:57.783Z,42.78
2023-06-29T20:06:28.868Z,44.72
2023-06-29T20:08:57.329Z,42.30
2023-06-29T20:11:25.434Z,43.72
2023-06-29T20:13:55.011Z,43.83
2023-06-29T20:16:23.507Z,43.35
2023-06-29T20:18:52.507Z,45.22
2023-06-29T20:21:20.588Z,44.13
2023-06-29T20:23:52.079Z,43.33
2023-06-29T20:26:20.704Z,41.80
2023-06-29T20:28:49.942Z,45.20
2023-06-29T20:31:19.721Z,50.53
2023-06-29T20:33:47.873Z,55.15
2023-06-29T20:36:17.600Z,58.85
2023-06-29T20:38:46.277Z,49.53
2023-06-29T20:41:15.220Z,50.28
2023-06-29T20:43:47.099Z,51.80
2023-06-29T20:46:16.275Z,51.60
2023-06-29T20:48:45.934Z,53.20
2023-06-29T20:51:18.262Z,57.45
2023-06-29T20:53:46.751Z,53.10
2023-06-29T20:56:15.766Z,50.30
2023-06-29T20:58:43.977Z,52.58
2023-06-29T21:01:12.268Z,55.95
2023-06-29T21:03:44.869Z,51.72
2023-06-29T21:06:14.935Z,55.55
2023-06-29T21:08:43.374Z,50.70
2023-06-29T21:11:12.089Z,54.03
2023-06-29T21:13:41.498Z,51.50
2023-06-29T21:16:10.044Z,52.50
2023-06-29T21:18:38.922Z,52.88
2023-06-29T21:21:07.905Z,54.55
2023-06-29T21:23:38.543Z,54.72
2023-06-29T21:26:07.176Z,48.10
2023-06-29T21:28:37.189Z,45.72
2023-06-29T21:31:05.951Z,50.60
2023-06-29T21:33:34.732Z,53.78
2023-06-29T21:36:03.652Z,57.05
2023-06-29T21:38:33.562Z,54.15
2023-06-29T21:41:03.428Z,45.58
2023-06-29T21:43:33.959Z,52.28
2023-06-29T21:46:03.693Z,49.35
2023-06-29T21:48:32.662Z,48.03
2023-06-29T21:51:00.843Z,39.15
2023-06-29T21:53:29.167Z,36.47
2023-06-29T21:56:06.824Z,42.97
2023-06-29T21:58:46.910Z,34.55
2023-06-29T22:01:15.218Z,37.50
2023-06-29T22:03:43.716Z,34.75
2023-06-29T22:06:11.979Z,40.33
2023-06-29T22:08:40.452Z,36.75
2023-06-29T22:11:08.847Z,37.40
2023-06-29T22:13:36.978Z,37.00
2023-06-29T22:16:07.029Z,36.13
2023-06-29T22:18:35.242Z,37.22
2023-06-29T22:21:04.733Z,38.35
2023-06-29T22:23:33.534Z,38.13
2023-06-29T22:26:01.733Z,41.13
2023-06-29T22:28:30.069Z,34.78
2023-06-29T22:30:58.526Z,43.83
2023-06-29T22:33:29.555Z,43.22
2023-06-29T22:35:57.751Z,39.08
2023-06-29T22:38:25.919Z,38.63
2023-06-29T22:40:54.207Z,39.72
2023-06-29T22:43:23.312Z,42.65
2023-06-29T22:45:52.292Z,42.15
2023-06-29T22:48:20.722Z,38.80
2023-06-29T22:50:53.775Z,37.80
2023-06-29T22:53:24.066Z,36.53
2023-06-29T22:55:55.494Z,33.13
2023-06-29T22:58:26.121Z,37.55
2023-06-29T23:00:54.988Z,32.78
2023-06-29T23:03:25.114Z,32.40
2023-06-29T23:05:55.053Z,33.33
2023-06-29T23:08:26.477Z,34.08
2023-06-29T23:10:54.837Z,25.98
2023-06-29T23:13:25.707Z,26.23
2023-06-29T23:15:54.059Z,26.15
2023-06-29T23:18:22.198Z,24.45
2023-06-29T23:20:50.668Z,24.17
2023-06-29T23:23:26.308Z,22.48
2023-06-29T23:25:54.872Z,25.45
2023-06-29T23:28:23.622Z,24.67
2023-06-29T23:30:52.107Z,24.20
2023-06-29T23:33:22.858Z,19.92
2023-06-29T23:35:51.261Z,20.60
2023-06-29T23:38:20.872Z,16.58
2023-06-29T23:40:49.457Z,14.98
2023-06-29T23:43:17.872Z,15.65
2023-06-29T23:45:46.796Z,19.80
2023-06-29T23:48:16.025Z,20.75
2023-06-29T23:50:44.457Z,21.27
2023-06-29T23:53:18.434Z,21.65
2023-06-29T23:55:49.258Z,21.40
2023-06-29T23:58:17.537Z,21.00
